sensor_id;sensor_type;location;lat;lon;timestamp;P1;durP1;ratioP1;P2;durP2;ratioP2
42094;SDS011;27753;55.724;37.612;2023-06-10T00:01:29;4.43;;;2.65;;
42094;SDS011;27753;55.724;37.612;2023-06-10T00:03:55;4.20;;;3.20;;
42094;SDS011;27753;55.724;37.612;2023-06-10T00:06:22;6.07;;;3.55;;
42094;SDS011;27753;55.724;37.612;2023-06-10T00:08:49;6.82;;;3.75;;
42094;SDS011;27753;55.724;37.612;2023-06-10T00:11:16;7.28;;;4.03;;
42094;SDS011;27753;55.724;37.612;2023-06-10T00:13:42;8.10;;;3.45;;
42094;SDS011;27753;55.724;37.612;2023-06-10T00:16:08;6.43;;;3.15;;
42094;SDS011;27753;55.724;37.612;2023-06-10T00:18:33;7.32;;;3.47;;
42094;SDS011;27753;55.724;37.612;2023-06-10T00:21:03;6.70;;;3.33;;
42094;SDS011;27753;55.724;37.612;2023-06-10T00:23:30;8.43;;;3.38;;
42094;SDS011;27753;55.724;37.612;2023-06-10T00:25:59;6.13;;;3.70;;
42094;SDS011;27753;55.724;37.612;2023-06-10T00:28:25;4.70;;;3.42;;
42094;SDS011;27753;55.724;37.612;2023-06-10T00:30:51;6.32;;;3.42;;
42094;SDS011;27753;55.724;37.612;2023-06-10T00:33:17;7.22;;;3.45;;
42094;SDS011;27753;55.724;37.612;2023-06-10T00:35:43;5.63;;;3.50;;
42094;SDS011;27753;55.724;37.612;2023-06-10T00:38:08;8.50;;;3.60;;
42094;SDS011;27753;55.724;37.612;2023-06-10T00:40:43;6.72;;;3.58;;
42094;SDS011;27753;55.724;37.612;2023-06-10T00:43:09;5.32;;;3.95;;
42094;SDS011;27753;55.724;37.612;2023-06-10T00:45:35;4.22;;;3.30;;
42094;SDS011;27753;55.724;37.612;2023-06-10T00:48:01;5.05;;;3.28;;
42094;SDS011;27753;55.724;37.612;2023-06-10T00:50:28;5.13;;;3.70;;
42094;SDS011;27753;55.724;37.612;2023-06-10T00:55:22;4.30;;;3.33;;
42094;SDS011;27753;55.724;37.612;2023-06-10T00:57:49;10.65;;;4.38;;
42094;SDS011;27753;55.724;37.612;2023-06-10T01:00:16;5.50;;;4.10;;
42094;SDS011;27753;55.724;37.612;2023-06-10T01:02:43;5.22;;;4.13;;
42094;SDS011;27753;55.724;37.612;2023-06-10T01:05:09;4.75;;;3.90;;
42094;SDS011;27753;55.724;37.612;2023-06-10T01:07:40;8.38;;;4.85;;
42094;SDS011;27753;55.724;37.612;2023-06-10T01:10:32;6.38;;;4.50;;
42094;SDS011;27753;55.724;37.612;2023-06-10T01:13:06;6.15;;;3.95;;
42094;SDS011;27753;55.724;37.612;2023-06-10T01:15:36;3.85;;;3.25;;
42094;SDS011;27753;55.724;37.612;2023-06-10T01:18:03;5.18;;;3.17;;
42094;SDS011;27753;55.724;37.612;2023-06-10T01:20:34;4.25;;;3.17;;
42094;SDS011;27753;55.724;37.612;2023-06-10T01:23:05;6.28;;;3.67;;
42094;SDS011;27753;55.724;37.612;2023-06-10T01:25:32;4.60;;;3.15;;
42094;SDS011;27753;55.724;37.612;2023-06-10T01:31:16;7.47;;;3.33;;
42094;SDS011;27753;55.724;37.612;2023-06-10T01:33:41;7.18;;;2.97;;
42094;SDS011;27753;55.724;37.612;2023-06-10T01:36:10;4.95;;;3.08;;
42094;SDS011;27753;55.724;37.612;2023-06-10T01:38:45;6.00;;;3.25;;
42094;SDS011;27753;55.724;37.612;2023-06-10T01:41:13;3.00;;;2.45;;
42094;SDS011;27753;55.724;37.612;2023-06-10T01:43:42;7.43;;;3.00;;
42094;SDS011;27753;55.724;37.612;2023-06-10T01:46:09;4.82;;;2.60;;
42094;SDS011;27753;55.724;37.612;2023-06-10T01:51:03;4.25;;;3.03;;
42094;SDS011;27753;55.724;37.612;2023-06-10T01:53:29;4.43;;;2.95;;
42094;SDS011;27753;55.724;37.612;2023-06-10T01:55:55;3.53;;;3.08;;
42094;SDS011;27753;55.724;37.612;2023-06-10T01:58:21;4.80;;;3.35;;
42094;SDS011;27753;55.724;37.612;2023-06-10T02:00:47;5.20;;;3.03;;
42094;SDS011;27753;55.724;37.612;2023-06-10T02:03:12;6.95;;;3.50;;
42094;SDS011;27753;55.724;37.612;2023-06-10T02:05:38;7.22;;;3.55;;
42094;SDS011;27753;55.724;37.612;2023-06-10T02:08:04;6.13;;;3.20;;
42094;SDS011;27753;55.724;37.612;2023-06-10T02:10:30;8.27;;;3.50;;
42094;SDS011;27753;55.724;37.612;2023-06-10T02:12:56;5.47;;;2.92;;
42094;SDS011;27753;55.724;37.612;2023-06-10T02:15:22;5.57;;;3.22;;
42094;SDS011;27753;55.724;37.612;2023-06-10T02:17:48;4.70;;;3.08;;
42094;SDS011;27753;55.724;37.612;2023-06-10T02:20:15;5.75;;;3.25;;
42094;SDS011;27753;55.724;37.612;2023-06-10T02:22:41;5.10;;;3.40;;
42094;SDS011;27753;55.724;37.612;2023-06-10T02:25:07;5.85;;;3.50;;
42094;SDS011;27753;55.724;37.612;2023-06-10T02:27:33;7.45;;;3.65;;
42094;SDS011;27753;55.724;37.612;2023-06-10T02:30:00;5.80;;;3.50;;
42094;SDS011;27753;55.724;37.612;2023-06-10T02:32:26;5.53;;;3.60;;
42094;SDS011;27753;55.724;37.612;2023-06-10T02:34:52;7.38;;;3.72;;
42094;SDS011;27753;55.724;37.612;2023-06-10T02:37:18;3.88;;;2.90;;
42094;SDS011;27753;55.724;37.612;2023-06-10T02:39:44;7.78;;;3.97;;
42094;SDS011;27753;55.724;37.612;2023-06-10T02:42:10;5.47;;;3.58;;
42094;SDS011;27753;55.724;37.612;2023-06-10T02:44:37;3.65;;;2.75;;
42094;SDS011;27753;55.724;37.612;2023-06-10T02:47:03;4.50;;;3.22;;
42094;SDS011;27753;55.724;37.612;2023-06-10T02:49:29;11.38;;;3.40;;
42094;SDS011;27753;55.724;37.612;2023-06-10T02:51:55;4.88;;;2.97;;
42094;SDS011;27753;55.724;37.612;2023-06-10T02:54:25;3.77;;;3.13;;
42094;SDS011;27753;55.724;37.612;2023-06-10T02:56:51;3.70;;;2.47;;
42094;SDS011;27753;55.724;37.612;2023-06-10T02:59:18;8.32;;;3.33;;
42094;SDS011;27753;55.724;37.612;2023-06-10T03:01:44;7.70;;;3.17;;
42094;SDS011;27753;55.724;37.612;2023-06-10T03:04:11;5.75;;;3.10;;
42094;SDS011;27753;55.724;37.612;2023-06-10T03:06:38;4.80;;;2.67;;
42094;SDS011;27753;55.724;37.612;2023-06-10T03:09:06;5.85;;;3.10;;
42094;SDS011;27753;55.724;37.612;2023-06-10T03:11:35;4.45;;;2.95;;
42094;SDS011;27753;55.724;37.612;2023-06-10T03:14:01;5.47;;;3.55;;
42094;SDS011;27753;55.724;37.612;2023-06-10T03:16:27;4.63;;;3.25;;
42094;SDS011;27753;55.724;37.612;2023-06-10T03:18:53;5.32;;;2.90;;
42094;SDS011;27753;55.724;37.612;2023-06-10T03:21:19;5.13;;;3.17;;
42094;SDS011;27753;55.724;37.612;2023-06-10T03:23:45;6.53;;;2.55;;
42094;SDS011;27753;55.724;37.612;2023-06-10T03:26:11;4.13;;;2.33;;
42094;SDS011;27753;55.724;37.612;2023-06-10T03:28:39;7.05;;;2.55;;
42094;SDS011;27753;55.724;37.612;2023-06-10T03:31:05;3.83;;;2.60;;
42094;SDS011;27753;55.724;37.612;2023-06-10T03:33:31;6.28;;;2.90;;
42094;SDS011;27753;55.724;37.612;2023-06-10T03:35:57;4.47;;;2.75;;
42094;SDS011;27753;55.724;37.612;2023-06-10T03:38:23;5.18;;;3.03;;
42094;SDS011;27753;55.724;37.612;2023-06-10T03:40:49;4.47;;;2.40;;
42094;SDS011;27753;55.724;37.612;2023-06-10T03:43:15;7.80;;;3.17;;
42094;SDS011;27753;55.724;37.612;2023-06-10T03:45:41;5.07;;;2.67;;
42094;SDS011;27753;55.724;37.612;2023-06-10T03:48:06;7.50;;;2.63;;
42094;SDS011;27753;55.724;37.612;2023-06-10T03:50:33;8.63;;;3.15;;
42094;SDS011;27753;55.724;37.612;2023-06-10T03:53:00;12.70;;;8.68;;
42094;SDS011;27753;55.724;37.612;2023-06-10T03:55:26;4.82;;;2.47;;
42094;SDS011;27753;55.724;37.612;2023-06-10T03:57:52;6.18;;;3.00;;
42094;SDS011;27753;55.724;37.612;2023-06-10T04:00:18;6.43;;;3.45;;
42094;SDS011;27753;55.724;37.612;2023-06-10T04:02:46;5.00;;;2.53;;
42094;SDS011;27753;55.724;37.612;2023-06-10T04:05:14;5.72;;;2.40;;
42094;SDS011;27753;55.724;37.612;2023-06-10T04:07:41;7.32;;;2.70;;
42094;SDS011;27753;55.724;37.612;2023-06-10T04:10:10;4.28;;;2.20;;
42094;SDS011;27753;55.724;37.612;2023-06-10T04:12:37;5.57;;;3.53;;
42094;SDS011;27753;55.724;37.612;2023-06-10T04:15:03;2.95;;;2.25;;
42094;SDS011;27753;55.724;37.612;2023-06-10T04:17:30;3.33;;;2.07;;
42094;SDS011;27753;55.724;37.612;2023-06-10T04:19:56;3.15;;;2.13;;
42094;SDS011;27753;55.724;37.612;2023-06-10T04:22:23;4.77;;;2.63;;
42094;SDS011;27753;55.724;37.612;2023-06-10T04:24:49;4.22;;;2.53;;
42094;SDS011;27753;55.724;37.612;2023-06-10T04:27:14;3.22;;;2.40;;
42094;SDS011;27753;55.724;37.612;2023-06-10T04:29:40;9.43;;;5.53;;
42094;SDS011;27753;55.724;37.612;2023-06-10T04:32:06;4.43;;;2.70;;
42094;SDS011;27753;55.724;37.612;2023-06-10T04:34:33;8.95;;;3.55;;
42094;SDS011;27753;55.724;37.612;2023-06-10T04:36:59;7.13;;;3.07;;
42094;SDS011;27753;55.724;37.612;2023-06-10T04:39:25;6.30;;;2.55;;
42094;SDS011;27753;55.724;37.612;2023-06-10T04:41:52;6.70;;;2.58;;
42094;SDS011;27753;55.724;37.612;2023-06-10T04:44:18;5.22;;;2.70;;
42094;SDS011;27753;55.724;37.612;2023-06-10T04:46:44;5.07;;;2.50;;
42094;SDS011;27753;55.724;37.612;2023-06-10T04:49:10;5.70;;;3.08;;
42094;SDS011;27753;55.724;37.612;2023-06-10T04:51:39;4.10;;;2.20;;
42094;SDS011;27753;55.724;37.612;2023-06-10T04:54:05;3.03;;;2.00;;
42094;SDS011;27753;55.724;37.612;2023-06-10T04:56:31;2.63;;;1.90;;
42094;SDS011;27753;55.724;37.612;2023-06-10T04:58:58;4.15;;;2.53;;
42094;SDS011;27753;55.724;37.612;2023-06-10T05:01:24;3.45;;;1.77;;
42094;SDS011;27753;55.724;37.612;2023-06-10T05:03:50;4.30;;;2.63;;
42094;SDS011;27753;55.724;37.612;2023-06-10T05:06:16;2.88;;;1.85;;
42094;SDS011;27753;55.724;37.612;2023-06-10T05:08:43;5.40;;;2.35;;
42094;SDS011;27753;55.724;37.612;2023-06-10T05:11:09;8.90;;;3.67;;
42094;SDS011;27753;55.724;37.612;2023-06-10T05:13:35;5.50;;;2.55;;
42094;SDS011;27753;55.724;37.612;2023-06-10T05:16:01;3.72;;;2.38;;
42094;SDS011;27753;55.724;37.612;2023-06-10T05:18:27;5.57;;;4.03;;
42094;SDS011;27753;55.724;37.612;2023-06-10T05:20:53;3.58;;;2.15;;
42094;SDS011;27753;55.724;37.612;2023-06-10T05:23:19;4.13;;;2.50;;
42094;SDS011;27753;55.724;37.612;2023-06-10T05:25:45;4.97;;;2.92;;
42094;SDS011;27753;55.724;37.612;2023-06-10T05:28:12;3.40;;;2.72;;
42094;SDS011;27753;55.724;37.612;2023-06-10T05:30:37;6.25;;;2.50;;
42094;SDS011;27753;55.724;37.612;2023-06-10T05:33:03;2.92;;;1.95;;
42094;SDS011;27753;55.724;37.612;2023-06-10T05:35:30;10.55;;;2.40;;
42094;SDS011;27753;55.724;37.612;2023-06-10T05:37:56;5.50;;;2.42;;
42094;SDS011;27753;55.724;37.612;2023-06-10T05:40:22;6.32;;;2.33;;
42094;SDS011;27753;55.724;37.612;2023-06-10T05:42:48;3.83;;;2.20;;
42094;SDS011;27753;55.724;37.612;2023-06-10T05:45:14;3.97;;;1.73;;
42094;SDS011;27753;55.724;37.612;2023-06-10T05:47:40;6.10;;;3.72;;
42094;SDS011;27753;55.724;37.612;2023-06-10T05:50:06;2.63;;;1.88;;
42094;SDS011;27753;55.724;37.612;2023-06-10T05:52:34;2.72;;;1.70;;
42094;SDS011;27753;55.724;37.612;2023-06-10T05:55:00;4.25;;;2.30;;
42094;SDS011;27753;55.724;37.612;2023-06-10T05:57:26;3.75;;;2.78;;
42094;SDS011;27753;55.724;37.612;2023-06-10T05:59:52;5.68;;;1.90;;
42094;SDS011;27753;55.724;37.612;2023-06-10T06:02:18;4.22;;;1.98;;
42094;SDS011;27753;55.724;37.612;2023-06-10T06:04:43;4.38;;;2.00;;
42094;SDS011;27753;55.724;37.612;2023-06-10T06:07:09;4.22;;;2.40;;
42094;SDS011;27753;55.724;37.612;2023-06-10T06:09:35;10.57;;;3.03;;
42094;SDS011;27753;55.724;37.612;2023-06-10T06:12:01;6.13;;;3.00;;
42094;SDS011;27753;55.724;37.612;2023-06-10T06:14:31;4.35;;;1.65;;
42094;SDS011;27753;55.724;37.612;2023-06-10T06:16:57;4.32;;;1.95;;
42094;SDS011;27753;55.724;37.612;2023-06-10T06:19:23;2.85;;;1.73;;
42094;SDS011;27753;55.724;37.612;2023-06-10T06:21:49;8.55;;;2.90;;
42094;SDS011;27753;55.724;37.612;2023-06-10T06:24:15;6.75;;;2.20;;
42094;SDS011;27753;55.724;37.612;2023-06-10T06:26:41;4.87;;;2.03;;
42094;SDS011;27753;55.724;37.612;2023-06-10T06:29:07;5.10;;;2.88;;
42094;SDS011;27753;55.724;37.612;2023-06-10T06:31:33;4.60;;;1.83;;
42094;SDS011;27753;55.724;37.612;2023-06-10T06:33:59;4.05;;;2.13;;
42094;SDS011;27753;55.724;37.612;2023-06-10T06:36:24;5.63;;;2.00;;
42094;SDS011;27753;55.724;37.612;2023-06-10T06:38:51;4.40;;;1.60;;
42094;SDS011;27753;55.724;37.612;2023-06-10T06:41:17;7.45;;;2.63;;
42094;SDS011;27753;55.724;37.612;2023-06-10T06:43:43;7.53;;;2.15;;
42094;SDS011;27753;55.724;37.612;2023-06-10T06:46:09;3.13;;;1.58;;
42094;SDS011;27753;55.724;37.612;2023-06-10T06:48:34;3.25;;;1.70;;
42094;SDS011;27753;55.724;37.612;2023-06-10T06:51:00;3.60;;;1.67;;
42094;SDS011;27753;55.724;37.612;2023-06-10T06:53:26;2.00;;;1.25;;
42094;SDS011;27753;55.724;37.612;2023-06-10T06:55:52;3.65;;;1.88;;
42094;SDS011;27753;55.724;37.612;2023-06-10T06:58:18;4.00;;;1.60;;
42094;SDS011;27753;55.724;37.612;2023-06-10T07:00:44;4.50;;;1.55;;
42094;SDS011;27753;55.724;37.612;2023-06-10T07:03:10;12.15;;;4.90;;
42094;SDS011;27753;55.724;37.612;2023-06-10T07:05:36;17.30;;;7.40;;
42094;SDS011;27753;55.724;37.612;2023-06-10T07:08:02;3.50;;;1.60;;
42094;SDS011;27753;55.724;37.612;2023-06-10T07:10:28;3.20;;;1.58;;
42094;SDS011;27753;55.724;37.612;2023-06-10T07:12:54;4.70;;;1.50;;
42094;SDS011;27753;55.724;37.612;2023-06-10T07:15:20;8.52;;;1.65;;
42094;SDS011;27753;55.724;37.612;2023-06-10T07:17:46;5.30;;;1.60;;
42094;SDS011;27753;55.724;37.612;2023-06-10T07:20:12;5.37;;;1.47;;
42094;SDS011;27753;55.724;37.612;2023-06-10T07:22:39;4.32;;;1.55;;
42094;SDS011;27753;55.724;37.612;2023-06-10T07:25:06;4.35;;;1.95;;
42094;SDS011;27753;55.724;37.612;2023-06-10T07:27:33;4.50;;;1.77;;
42094;SDS011;27753;55.724;37.612;2023-06-10T07:30:01;3.72;;;1.65;;
42094;SDS011;27753;55.724;37.612;2023-06-10T07:32:27;5.35;;;2.47;;
42094;SDS011;27753;55.724;37.612;2023-06-10T07:34:53;7.65;;;2.22;;
42094;SDS011;27753;55.724;37.612;2023-06-10T07:37:18;6.43;;;1.80;;
42094;SDS011;27753;55.724;37.612;2023-06-10T07:39:44;6.00;;;1.75;;
42094;SDS011;27753;55.724;37.612;2023-06-10T07:42:16;5.57;;;1.55;;
42094;SDS011;27753;55.724;37.612;2023-06-10T07:44:42;3.88;;;1.73;;
42094;SDS011;27753;55.724;37.612;2023-06-10T07:47:07;2.63;;;1.10;;
42094;SDS011;27753;55.724;37.612;2023-06-10T07:49:33;6.70;;;1.23;;
42094;SDS011;27753;55.724;37.612;2023-06-10T07:51:59;8.27;;;2.60;;
42094;SDS011;27753;55.724;37.612;2023-06-10T07:54:25;5.63;;;2.78;;
42094;SDS011;27753;55.724;37.612;2023-06-10T07:56:51;6.65;;;2.50;;
42094;SDS011;27753;55.724;37.612;2023-06-10T07:59:18;4.68;;;2.40;;
42094;SDS011;27753;55.724;37.612;2023-06-10T08:01:44;2.10;;;1.40;;
42094;SDS011;27753;55.724;37.612;2023-06-10T08:04:11;9.23;;;3.03;;
42094;SDS011;27753;55.724;37.612;2023-06-10T08:06:36;2.95;;;0.93;;
42094;SDS011;27753;55.724;37.612;2023-06-10T08:09:03;6.27;;;1.83;;
42094;SDS011;27753;55.724;37.612;2023-06-10T08:11:29;5.07;;;1.45;;
42094;SDS011;27753;55.724;37.612;2023-06-10T08:13:55;5.03;;;1.67;;
42094;SDS011;27753;55.724;37.612;2023-06-10T08:16:21;4.17;;;1.57;;
42094;SDS011;27753;55.724;37.612;2023-06-10T08:18:46;2.05;;;1.60;;
42094;SDS011;27753;55.724;37.612;2023-06-10T08:21:12;2.40;;;1.30;;
42094;SDS011;27753;55.724;37.612;2023-06-10T08:23:38;2.13;;;1.50;;
42094;SDS011;27753;55.724;37.612;2023-06-10T08:26:04;2.30;;;1.40;;
42094;SDS011;27753;55.724;37.612;2023-06-10T08:28:30;4.47;;;1.17;;
42094;SDS011;27753;55.724;37.612;2023-06-10T08:30:55;4.30;;;1.20;;
42094;SDS011;27753;55.724;37.612;2023-06-10T08:33:21;4.83;;;1.23;;
42094;SDS011;27753;55.724;37.612;2023-06-10T08:35:47;3.25;;;1.25;;
42094;SDS011;27753;55.724;37.612;2023-06-10T08:38:13;3.67;;;1.53;;
42094;SDS011;27753;55.724;37.612;2023-06-10T08:40:39;1.90;;;0.90;;
42094;SDS011;27753;55.724;37.612;2023-06-10T08:48:00;3.22;;;1.25;;
42094;SDS011;27753;55.724;37.612;2023-06-10T08:50:33;4.78;;;1.70;;
42094;SDS011;27753;55.724;37.612;2023-06-10T08:53:01;2.97;;;1.38;;
42094;SDS011;27753;55.724;37.612;2023-06-10T08:55:32;4.53;;;1.15;;
42094;SDS011;27753;55.724;37.612;2023-06-10T08:58:01;4.60;;;1.50;;
42094;SDS011;27753;55.724;37.612;2023-06-10T09:00:28;4.60;;;1.50;;
42094;SDS011;27753;55.724;37.612;2023-06-10T09:02:58;2.30;;;1.48;;
42094;SDS011;27753;55.724;37.612;2023-06-10T09:05:24;3.92;;;1.23;;
42094;SDS011;27753;55.724;37.612;2023-06-10T09:07:53;3.40;;;0.90;;
42094;SDS011;27753;55.724;37.612;2023-06-10T09:10:22;3.15;;;1.60;;
42094;SDS011;27753;55.724;37.612;2023-06-10T09:12:48;2.58;;;1.30;;
42094;SDS011;27753;55.724;37.612;2023-06-10T09:15:16;6.22;;;1.50;;
42094;SDS011;27753;55.724;37.612;2023-06-10T09:17:42;3.55;;;0.98;;
42094;SDS011;27753;55.724;37.612;2023-06-10T09:20:08;2.00;;;1.67;;
42094;SDS011;27753;55.724;37.612;2023-06-10T09:25:02;1.35;;;0.68;;
42094;SDS011;27753;55.724;37.612;2023-06-10T09:27:54;4.35;;;2.10;;
42094;SDS011;27753;55.724;37.612;2023-06-10T09:30:25;3.08;;;1.00;;
42094;SDS011;27753;55.724;37.612;2023-06-10T09:33:11;5.13;;;3.15;;
42094;SDS011;27753;55.724;37.612;2023-06-10T09:35:46;1.83;;;1.05;;
42094;SDS011;27753;55.724;37.612;2023-06-10T09:38:19;3.78;;;1.25;;
42094;SDS011;27753;55.724;37.612;2023-06-10T09:40:53;2.22;;;1.70;;
42094;SDS011;27753;55.724;37.612;2023-06-10T09:43:20;6.40;;;2.05;;
42094;SDS011;27753;55.724;37.612;2023-06-10T09:45:50;3.08;;;1.48;;
42094;SDS011;27753;55.724;37.612;2023-06-10T09:48:19;5.18;;;2.10;;
42094;SDS011;27753;55.724;37.612;2023-06-10T09:50:45;2.20;;;1.10;;
42094;SDS011;27753;55.724;37.612;2023-06-10T09:53:11;3.77;;;1.57;;
42094;SDS011;27753;55.724;37.612;2023-06-10T09:55:38;5.85;;;1.17;;
42094;SDS011;27753;55.724;37.612;2023-06-10T09:58:04;1.77;;;1.33;;
42094;SDS011;27753;55.724;37.612;2023-06-10T10:00:33;5.10;;;1.50;;
42094;SDS011;27753;55.724;37.612;2023-06-10T10:02:59;2.75;;;1.50;;
42094;SDS011;27753;55.724;37.612;2023-06-10T10:05:26;1.20;;;0.70;;
42094;SDS011;27753;55.724;37.612;2023-06-10T10:07:52;2.10;;;1.17;;
42094;SDS011;27753;55.724;37.612;2023-06-10T10:10:19;3.17;;;1.40;;
42094;SDS011;27753;55.724;37.612;2023-06-10T10:12:46;4.95;;;1.30;;
42094;SDS011;27753;55.724;37.612;2023-06-10T10:18:05;3.50;;;1.50;;
42094;SDS011;27753;55.724;37.612;2023-06-10T10:20:31;7.10;;;2.92;;
42094;SDS011;27753;55.724;37.612;2023-06-10T10:23:02;3.47;;;1.40;;
42094;SDS011;27753;55.724;37.612;2023-06-10T10:25:32;4.05;;;2.33;;
42094;SDS011;27753;55.724;37.612;2023-06-10T10:28:10;3.33;;;1.48;;
42094;SDS011;27753;55.724;37.612;2023-06-10T10:30:39;3.42;;;1.40;;
42094;SDS011;27753;55.724;37.612;2023-06-10T10:33:12;3.20;;;1.50;;
42094;SDS011;27753;55.724;37.612;2023-06-10T10:35:40;8.07;;;4.03;;
42094;SDS011;27753;55.724;37.612;2023-06-10T10:38:07;3.97;;;2.30;;
42094;SDS011;27753;55.724;37.612;2023-06-10T10:40:33;2.03;;;1.50;;
42094;SDS011;27753;55.724;37.612;2023-06-10T10:43:00;3.97;;;1.35;;
42094;SDS011;27753;55.724;37.612;2023-06-10T10:45:27;2.85;;;1.33;;
42094;SDS011;27753;55.724;37.612;2023-06-10T10:47:58;5.78;;;1.48;;
42094;SDS011;27753;55.724;37.612;2023-06-10T10:50:29;2.63;;;1.30;;
42094;SDS011;27753;55.724;37.612;2023-06-10T10:53:02;5.40;;;1.67;;
42094;SDS011;27753;55.724;37.612;2023-06-10T10:55:29;1.88;;;0.80;;
42094;SDS011;27753;55.724;37.612;2023-06-10T10:57:59;3.47;;;1.33;;
42094;SDS011;27753;55.724;37.612;2023-06-10T11:00:28;6.13;;;1.50;;
42094;SDS011;27753;55.724;37.612;2023-06-10T11:02:59;4.03;;;1.23;;
42094;SDS011;27753;55.724;37.612;2023-06-10T11:05:35;2.78;;;0.90;;
42094;SDS011;27753;55.724;37.612;2023-06-10T11:08:03;1.75;;;1.30;;
42094;SDS011;27753;55.724;37.612;2023-06-10T11:10:34;7.55;;;1.65;;
42094;SDS011;27753;55.724;37.612;2023-06-10T11:13:14;3.47;;;1.20;;
42094;SDS011;27753;55.724;37.612;2023-06-10T11:15:44;1.88;;;1.33;;
42094;SDS011;27753;55.724;37.612;2023-06-10T11:21:01;2.60;;;1.40;;
42094;SDS011;27753;55.724;37.612;2023-06-10T11:26:17;4.15;;;1.30;;
42094;SDS011;27753;55.724;37.612;2023-06-10T11:31:29;5.57;;;2.30;;
42094;SDS011;27753;55.724;37.612;2023-06-10T11:34:23;3.22;;;1.52;;
42094;SDS011;27753;55.724;37.612;2023-06-10T11:36:52;2.38;;;1.27;;
42094;SDS011;27753;55.724;37.612;2023-06-10T11:39:19;6.95;;;1.85;;
42094;SDS011;27753;55.724;37.612;2023-06-10T11:41:48;4.88;;;2.45;;
42094;SDS011;27753;55.724;37.612;2023-06-10T11:44:15;5.70;;;1.30;;
42094;SDS011;27753;55.724;37.612;2023-06-10T11:46:41;6.43;;;1.40;;
42094;SDS011;27753;55.724;37.612;2023-06-10T11:49:07;5.30;;;1.63;;
42094;SDS011;27753;55.724;37.612;2023-06-10T11:51:35;1.95;;;1.30;;
42094;SDS011;27753;55.724;37.612;2023-06-10T11:54:03;4.68;;;1.65;;
42094;SDS011;27753;55.724;37.612;2023-06-10T11:56:29;2.57;;;1.37;;
42094;SDS011;27753;55.724;37.612;2023-06-10T11:59:06;5.85;;;1.40;;
42094;SDS011;27753;55.724;37.612;2023-06-10T12:01:33;1.55;;;1.15;;
42094;SDS011;27753;55.724;37.612;2023-06-10T12:04:11;3.28;;;1.85;;
42094;SDS011;27753;55.724;37.612;2023-06-10T12:06:42;2.88;;;1.20;;
42094;SDS011;27753;55.724;37.612;2023-06-10T12:09:18;5.13;;;1.70;;
42094;SDS011;27753;55.724;37.612;2023-06-10T12:20:02;2.03;;;1.10;;
42094;SDS011;27753;55.724;37.612;2023-06-10T12:22:36;2.15;;;1.13;;
42094;SDS011;27753;55.724;37.612;2023-06-10T12:25:05;7.47;;;1.70;;
42094;SDS011;27753;55.724;37.612;2023-06-10T12:27:33;4.50;;;1.33;;
42094;SDS011;27753;55.724;37.612;2023-06-10T12:29:59;4.07;;;1.30;;
42094;SDS011;27753;55.724;37.612;2023-06-10T12:32:35;2.13;;;1.40;;
42094;SDS011;27753;55.724;37.612;2023-06-10T12:35:06;3.78;;;1.67;;
42094;SDS011;27753;55.724;37.612;2023-06-10T12:37:33;3.58;;;1.65;;
42094;SDS011;27753;55.724;37.612;2023-06-10T12:40:01;5.13;;;1.60;;
42094;SDS011;27753;55.724;37.612;2023-06-10T12:42:31;6.28;;;2.15;;
42094;SDS011;27753;55.724;37.612;2023-06-10T12:45:01;7.63;;;1.80;;
42094;SDS011;27753;55.724;37.612;2023-06-10T12:47:30;5.78;;;1.60;;
42094;SDS011;27753;55.724;37.612;2023-06-10T12:49:57;3.97;;;1.40;;
42094;SDS011;27753;55.724;37.612;2023-06-10T12:52:24;2.50;;;1.48;;
42094;SDS011;27753;55.724;37.612;2023-06-10T12:54:50;4.70;;;1.50;;
42094;SDS011;27753;55.724;37.612;2023-06-10T12:57:17;3.13;;;1.55;;
42094;SDS011;27753;55.724;37.612;2023-06-10T12:59:43;1.83;;;1.30;;
42094;SDS011;27753;55.724;37.612;2023-06-10T13:02:15;5.43;;;1.92;;
42094;SDS011;27753;55.724;37.612;2023-06-10T13:04:44;2.20;;;1.47;;
42094;SDS011;27753;55.724;37.612;2023-06-10T13:07:11;3.38;;;1.40;;
42094;SDS011;27753;55.724;37.612;2023-06-10T13:09:37;5.00;;;2.15;;
42094;SDS011;27753;55.724;37.612;2023-06-10T13:12:03;4.35;;;1.63;;
42094;SDS011;27753;55.724;37.612;2023-06-10T13:14:30;3.93;;;1.40;;
42094;SDS011;27753;55.724;37.612;2023-06-10T13:16:56;4.18;;;1.50;;
42094;SDS011;27753;55.724;37.612;2023-06-10T13:19:21;2.38;;;1.33;;
42094;SDS011;27753;55.724;37.612;2023-06-10T13:21:47;2.47;;;1.20;;
42094;SDS011;27753;55.724;37.612;2023-06-10T13:24:13;3.50;;;1.60;;
42094;SDS011;27753;55.724;37.612;2023-06-10T13:26:39;3.08;;;1.52;;
42094;SDS011;27753;55.724;37.612;2023-06-10T13:29:05;2.83;;;1.35;;
42094;SDS011;27753;55.724;37.612;2023-06-10T13:31:33;6.28;;;1.50;;
42094;SDS011;27753;55.724;37.612;2023-06-10T13:33:59;2.00;;;1.10;;
42094;SDS011;27753;55.724;37.612;2023-06-10T13:36:24;4.25;;;1.73;;
42094;SDS011;27753;55.724;37.612;2023-06-10T13:38:50;3.70;;;1.73;;
42094;SDS011;27753;55.724;37.612;2023-06-10T13:41:16;5.63;;;1.40;;
42094;SDS011;27753;55.724;37.612;2023-06-10T13:43:42;3.15;;;1.38;;
42094;SDS011;27753;55.724;37.612;2023-06-10T13:46:08;3.92;;;1.55;;
42094;SDS011;27753;55.724;37.612;2023-06-10T13:48:34;6.85;;;1.50;;
42094;SDS011;27753;55.724;37.612;2023-06-10T13:51:00;5.15;;;1.58;;
42094;SDS011;27753;55.724;37.612;2023-06-10T13:53:26;3.17;;;1.50;;
42094;SDS011;27753;55.724;37.612;2023-06-10T13:55:52;5.65;;;1.70;;
42094;SDS011;27753;55.724;37.612;2023-06-10T13:58:18;3.13;;;1.58;;
42094;SDS011;27753;55.724;37.612;2023-06-10T14:00:43;6.90;;;1.60;;
42094;SDS011;27753;55.724;37.612;2023-06-10T14:03:09;3.22;;;1.33;;
42094;SDS011;27753;55.724;37.612;2023-06-10T14:05:35;5.30;;;1.80;;
42094;SDS011;27753;55.724;37.612;2023-06-10T14:08:01;4.88;;;1.75;;
42094;SDS011;27753;55.724;37.612;2023-06-10T14:10:27;10.75;;;2.72;;
42094;SDS011;27753;55.724;37.612;2023-06-10T14:12:52;3.55;;;1.55;;
42094;SDS011;27753;55.724;37.612;2023-06-10T14:15:18;3.55;;;1.83;;
42094;SDS011;27753;55.724;37.612;2023-06-10T14:17:44;4.45;;;1.70;;
42094;SDS011;27753;55.724;37.612;2023-06-10T14:20:11;3.13;;;1.10;;
42094;SDS011;27753;55.724;37.612;2023-06-10T14:22:37;1.77;;;1.15;;
42094;SDS011;27753;55.724;37.612;2023-06-10T14:25:03;2.45;;;1.27;;
42094;SDS011;27753;55.724;37.612;2023-06-10T14:27:29;4.23;;;1.50;;
42094;SDS011;27753;55.724;37.612;2023-06-10T14:29:55;2.95;;;1.80;;
42094;SDS011;27753;55.724;37.612;2023-06-10T14:32:21;3.10;;;1.90;;
42094;SDS011;27753;55.724;37.612;2023-06-10T14:34:47;2.70;;;1.42;;
42094;SDS011;27753;55.724;37.612;2023-06-10T14:37:13;2.75;;;1.23;;
42094;SDS011;27753;55.724;37.612;2023-06-10T14:39:39;3.40;;;1.67;;
42094;SDS011;27753;55.724;37.612;2023-06-10T14:42:05;8.07;;;1.88;;
42094;SDS011;27753;55.724;37.612;2023-06-10T14:44:31;4.13;;;2.22;;
42094;SDS011;27753;55.724;37.612;2023-06-10T14:46:57;6.35;;;2.10;;
42094;SDS011;27753;55.724;37.612;2023-06-10T14:49:23;2.28;;;1.63;;
42094;SDS011;27753;55.724;37.612;2023-06-10T14:51:49;4.13;;;1.50;;
42094;SDS011;27753;55.724;37.612;2023-06-10T14:54:15;3.45;;;2.00;;
42094;SDS011;27753;55.724;37.612;2023-06-10T14:56:41;3.90;;;1.67;;
42094;SDS011;27753;55.724;37.612;2023-06-10T14:59:07;5.45;;;1.63;;
42094;SDS011;27753;55.724;37.612;2023-06-10T15:01:32;5.80;;;2.05;;
42094;SDS011;27753;55.724;37.612;2023-06-10T15:03:58;4.32;;;2.00;;
42094;SDS011;27753;55.724;37.612;2023-06-10T15:06:24;6.57;;;2.20;;
42094;SDS011;27753;55.724;37.612;2023-06-10T15:08:50;3.03;;;1.85;;